Time,TemperatureF,DewpointF,PressureIn,WindDirection,WindDirectionDegrees,WindSpeedMPH,WindSpeedGustMPH,Humidity,HourlyPrecipIn,Conditions,Clouds,dailyrainin,SoftwareType,DateUTC
2013-01-24 00:01:00,37.1,27.2,30.07,WSW,242,10.4,10.4,67,0.00,CLR,,0.00,WeatherDisplay:10.37,2013-01-24 05:01:00,
2013-01-24 00:02:00,37.1,27.2,30.07,SW,236,11.5,11.5,67,0.00,CLR,,0.00,WeatherDisplay:10.37,2013-01-24 05:02:00,
2013-01-24 00:03:00,37.2,27.2,30.07,SW,215,12.7,12.7,67,0.00,CLR,,0.00,WeatherDisplay:10.37,2013-01-24 05:03:00,
2013-01-24 00:08:00,37.4,27.4,30.07,WSW,238,10.4,10.4,67,0.00,CLR,,0.00,WeatherDisplay:10.37,2013-01-24 05:08:00,
2013-01-24 00:13:00,36.6,26.7,30.07,WSW,242,4.6,5.0,67,0.00,CLR,,0.00,WeatherDisplay:10.37,2013-01-24 05:13:00,
2013-01-24 00:18:00,37.4,27.4,30.07,SW,227,10.4,10.4,67,0.00,CLR,,0.00,WeatherDisplay:10.37,2013-01-24 05:18:00,
2013-01-24 00:23:00,36.6,26.7,30.07,WSW,242,4.6,5.0,67,0.00,CLR,,0.00,WeatherDisplay:10.37,2013-01-24 05:23:00,
2013-01-24 00:28:00,37.3,27.3,30.06,SW,223,9.2,9.2,67,0.00,CLR,,0.00,WeatherDisplay:10.37,2013-01-24 05:28:00,
2013-01-24 00:33:00,37.3,27.3,30.06,SW,234,5.8,5.8,67,0.00,CLR,,0.00,WeatherDisplay:10.37,2013-01-24 05:33:00,
2013-01-24 00:38:00,37.2,27.2,30.05,SW,226,6.9,6.9,67,0.00,CLR,,0.00,WeatherDisplay:10.37,2013-01-24 05:38:00,
2013-01-24 00:43:00,36.6,26.7,30.07,WSW,242,4.6,5.0,67,0.00,CLR,,0.00,WeatherDisplay:10.37,2013-01-24 05:43:00,
2013-01-24 00:48:00,36.6,26.7,30.07,WSW,242,4.6,5.0,67,0.00,CLR,,0.00,WeatherDisplay:10.37,2013-01-24 05:48:00,
2013-01-24 00:53:00,36.8,27.2,30.04,SSW,196,4.0,4.0,68,0.00,CLR,,0.00,WeatherDisplay:10.37,2013-01-24 05:53:00,
2013-01-24 00:58:00,36.6,27.0,30.04,WSW,250,9.2,9.2,68,0.00,CLR,,0.00,WeatherDisplay:10.37,2013-01-24 05:58:00,
2013-01-24 01:03:00,36.6,26.7,30.07,WSW,242,4.6,5.0,67,0.00,CLR,,0.00,WeatherDisplay:10.37,2013-01-24 06:03:00,
2013-01-24 01:08:00,36.2,27.0,30.03,SW,221,5.0,5.0,69,0.00,CLR,,0.00,WeatherDisplay:10.37,2013-01-24 06:08:00,
2013-01-24 01:13:00,36.0,26.8,30.04,WSW,237,6.9,6.9,69,0.00,CLR,,0.00,WeatherDisplay:10.37,2013-01-24 06:13:00,
2013-01-24 01:18:00,36.6,26.7,30.07,WSW,242,4.6,5.0,67,0.00,CLR,,0.00,WeatherDisplay:10.37,2013-01-24 06:18:00,
2013-01-24 01:23:00,35.8,27.0,30.03,SW,215,6.0,6.0,70,0.00,CLR,,0.00,WeatherDisplay:10.37,2013-01-24 06:23:00,
2013-01-24 01:28:00,35.7,26.9,30.03,WSW,238,5.8,5.8,70,0.00,CLR,,0.00,WeatherDisplay:10.37,2013-01-24 06:28:00,
2013-01-24 01:33:00,35.7,26.9,30.03,West,259,3.5,3.5,70,0.00,CLR,,0.00,WeatherDisplay:10.37,2013-01-24 06:33:00,
2013-01-24 01:38:00,35.7,26.9,30.03,West,259,3.5,3.5,70,0.00,CLR,,0.00,WeatherDisplay:10.37,2013-01-24 06:38:00,
2013-01-24 01:43:00,35.7,26.9,30.03,West,259,3.5,3.5,70,0.00,CLR,,0.00,WeatherDisplay:10.37,2013-01-24 06:43:00,
2013-01-24 01:48:00,35.7,26.9,30.03,West,259,3.5,3.5,70,0.00,CLR,,0.00,WeatherDisplay:10.37,2013-01-24 06:48:00,
2013-01-24 01:53:00,35.7,27.2,30.02,WSW,250,10.4,10.4,71,0.00,CLR,,0.00,WeatherDisplay:10.37,2013-01-24 06:53:00,
2013-01-24 01:58:00,35.9,27.4,30.02,WSW,243,10.4,10.4,71,0.00,CLR,,0.00,WeatherDisplay:10.37,2013-01-24 06:58:00,
2013-01-24 02:03:00,36.0,27.5,30.02,SW,235,4.6,4.6,71,0.00,CLR,,0.00,WeatherDisplay:10.37,2013-01-24 07:03:00,
2013-01-24 02:08:00,35.7,26.9,30.03,West,259,3.5,3.5,70,0.00,CLR,,0.00,WeatherDisplay:10.37,2013-01-24 07:08:00,
2013-01-24 02:13:00,35.7,26.9,30.03,West,259,3.5,3.5,70,0.00,CLR,,0.00,WeatherDisplay:10.37,2013-01-24 07:13:00,
2013-01-24 02:18:00,35.7,26.9,30.03,West,259,3.5,3.5,70,0.00,CLR,,0.00,WeatherDisplay:10.37,2013-01-24 07:18:00,
2013-01-24 02:23:00,36.1,27.6,30.02,WSW,244,5.8,6.3,71,0.00,CLR,,0.00,WeatherDisplay:10.37,2013-01-24 07:23:00,
2013-01-24 02:28:00,36.1,27.6,30.02,SW,220,5.8,5.8,71,0.00,CLR,,0.00,WeatherDisplay:10.37,2013-01-24 07:28:00,
2013-01-24 02:33:00,36.1,27.6,30.01,SW,215,5.8,5.8,71,0.00,CLR,,0.00,WeatherDisplay:10.37,2013-01-24 07:33:00,
2013-01-24 02:38:00,36.1,27.6,30.02,SW,231,5.8,5.8,71,0.00,CLR,,0.00,WeatherDisplay:10.37,2013-01-24 07:38:00,
2013-01-24 02:43:00,36.1,27.6,30.02,SW,231,5.8,5.8,71,0.00,CLR,,0.00,WeatherDisplay:10.37,2013-01-24 07:43:00,
2013-01-24 02:48:00,36.1,27.6,30.02,SW,231,5.8,5.8,71,0.00,CLR,,0.00,WeatherDisplay:10.37,2013-01-24 07:48:00,
2013-01-24 02:53:00,36.1,27.6,30.02,SW,231,5.8,5.8,71,0.00,CLR,,0.00,WeatherDisplay:10.37,2013-01-24 07:53:00,
2013-01-24 02:58:00,36.0,27.5,30.00,SW,229,3.5,3.7,71,0.00,CLR,,0.00,WeatherDisplay:10.37,2013-01-24 07:58:00,
2013-01-24 03:03:00,36.1,27.6,30.00,SW,222,5.8,5.8,71,0.00,CLR,,0.00,WeatherDisplay:10.37,2013-01-24 08:03:00,
2013-01-24 03:08:00,36.1,27.6,30.00,SW,218,9.2,9.2,71,0.00,CLR,,0.00,WeatherDisplay:10.37,2013-01-24 08:08:00,
2013-01-24 03:13:00,36.0,27.5,30.00,SW,229,3.5,3.7,71,0.00,CLR,,0.00,WeatherDisplay:10.37,2013-01-24 08:13:00,
2013-01-24 03:18:00,36.1,27.6,30.00,SW,229,5.0,5.0,71,0.00,CLR,,0.00,WeatherDisplay:10.37,2013-01-24 08:18:00,
2013-01-24 03:23:00,36.1,27.9,30.00,SW,227,5.8,5.8,72,0.00,CLR,,0.00,WeatherDisplay:10.37,2013-01-24 08:23:00,
2013-01-24 03:28:00,36.2,28.0,30.00,SW,233,4.0,4.0,72,0.00,CLR,,0.00,WeatherDisplay:10.37,2013-01-24 08:28:00,
2013-01-24 03:33:00,36.2,28.0,30.00,SW,227,4.0,4.0,72,0.00,CLR,,0.00,WeatherDisplay:10.37,2013-01-24 08:33:00,
2013-01-24 03:38:00,36.3,28.1,30.00,SW,218,6.9,6.9,72,0.00,CLR,,0.00,WeatherDisplay:10.37,2013-01-24 08:38:00,
2013-01-24 03:43:00,36.2,28.0,30.00,SW,236,9.2,9.2,72,0.00,CLR,,0.00,WeatherDisplay:10.37,2013-01-24 08:43:00,
2013-01-24 03:48:00,36.2,28.0,30.00,SW,236,9.2,9.2,72,0.00,CLR,,0.00,WeatherDisplay:10.37,2013-01-24 08:48:00,
2013-01-24 03:53:00,36.3,28.1,30.00,SW,230,4.6,5.1,72,0.00,CLR,,0.00,WeatherDisplay:10.37,2013-01-24 08:53:00,
2013-01-24 03:58:00,36.3,28.1,29.99,SW,223,4.6,4.6,72,0.00,CLR,,0.00,WeatherDisplay:10.37,2013-01-24 08:58:00,
2013-01-24 04:03:00,36.3,28.1,29.99,WSW,250,6.9,6.9,72,0.00,CLR,,0.00,WeatherDisplay:10.37,2013-01-24 09:03:00,
2013-01-24 04:08:00,36.4,28.2,29.99,WSW,237,5.8,5.8,72,0.00,CLR,,0.00,WeatherDisplay:10.37,2013-01-24 09:08:00,
2013-01-24 04:13:00,36.4,28.2,29.99,SW,227,9.2,9.2,72,0.00,CLR,,0.00,WeatherDisplay:10.37,2013-01-24 09:13:00,
2013-01-24 04:18:00,36.4,28.2,29.99,WSW,238,10.4,10.4,72,0.00,CLR,,0.00,WeatherDisplay:10.37,2013-01-24 09:18:00,
2013-01-24 04:23:00,36.5,29.7,29.99,SW,215,4.6,4.6,76,0.00,CLR,,0.00,WeatherDisplay:10.37,2013-01-24 09:23:00,
2013-01-24 04:28:00,36.6,28.4,29.99,SW,226,9.2,9.2,72,0.00,CLR,,0.00,WeatherDisplay:10.37,2013-01-24 09:28:00,
2013-01-24 04:33:00,36.7,28.2,29.99,WSW,245,3.5,4.1,71,0.00,CLR,,0.00,WeatherDisplay:10.37,2013-01-24 09:33:00,
2013-01-24 04:38:00,36.7,28.2,29.99,WSW,245,3.5,4.1,71,0.00,CLR,,0.00,WeatherDisplay:10.37,2013-01-24 09:38:00,
2013-01-24 04:43:00,37.0,28.5,30.00,West,267,3.5,3.5,71,0.00,CLR,,0.00,WeatherDisplay:10.37,2013-01-24 09:43:00,
2013-01-24 04:48:00,36.7,28.2,29.99,WSW,245,3.5,4.1,71,0.00,CLR,,0.00,WeatherDisplay:10.37,2013-01-24 09:48:00,
2013-01-24 04:53:00,36.7,28.2,29.99,WSW,245,3.5,4.1,71,0.00,CLR,,0.00,WeatherDisplay:10.37,2013-01-24 09:53:00,
2013-01-24 04:58:00,36.7,28.2,29.99,WSW,245,3.5,4.1,71,0.00,CLR,,0.00,WeatherDisplay:10.37,2013-01-24 09:58:00,
2013-01-24 05:03:00,36.7,28.2,29.99,WSW,245,3.5,4.1,71,0.00,CLR,,0.00,WeatherDisplay:10.37,2013-01-24 10:03:00,
2013-01-24 05:08:00,36.0,27.8,30.01,West,267,0.0,0.0,72,0.00,CLR,,0.00,WeatherDisplay:10.37,2013-01-24 10:08:00,
2013-01-24 05:13:00,36.1,27.9,30.01,WNW,283,2.3,2.3,72,0.00,CLR,,0.00,WeatherDisplay:10.37,2013-01-24 10:13:00,
2013-01-24 05:18:00,36.2,28.0,30.01,WNW,292,2.3,2.3,72,0.00,CLR,,0.00,WeatherDisplay:10.37,2013-01-24 10:18:00,
2013-01-24 05:23:00,36.1,27.9,30.02,WNW,292,3.5,0.0,72,0.00,CLR,,0.00,WeatherDisplay:10.37,2013-01-24 10:23:00,
2013-01-24 05:28:00,36.1,27.9,30.02,WNW,292,0.0,0.0,72,0.00,CLR,,0.00,WeatherDisplay:10.37,2013-01-24 10:28:00,
2013-01-24 05:33:00,35.9,27.7,30.02,WNW,293,0.0,0.0,72,0.00,CLR,,0.00,WeatherDisplay:10.37,2013-01-24 10:33:00,
2013-01-24 05:38:00,35.9,27.7,30.02,WNW,293,0.0,0.0,72,0.00,CLR,,0.00,WeatherDisplay:10.37,2013-01-24 10:38:00,
2013-01-24 05:43:00,35.9,27.7,30.02,WNW,293,0.0,0.0,72,0.00,CLR,,0.00,WeatherDisplay:10.37,2013-01-24 10:43:00,
2013-01-24 05:48:00,35.5,27.7,30.03,WNW,292,0.0,0.0,73,0.00,CLR,,0.00,WeatherDisplay:10.37,2013-01-24 10:48:00,
2013-01-24 05:53:00,35.9,27.7,30.02,WNW,293,0.0,0.0,72,0.00,CLR,,0.00,WeatherDisplay:10.37,2013-01-24 10:53:00,
2013-01-24 05:58:00,35.9,27.7,30.02,WNW,293,0.0,0.0,72,0.00,CLR,,0.00,WeatherDisplay:10.37,2013-01-24 10:58:00,
2013-01-24 06:03:00,35.9,27.7,30.02,WNW,293,0.0,0.0,72,0.00,CLR,,0.00,WeatherDisplay:10.37,2013-01-24 11:03:00,
2013-01-24 06:08:00,35.5,27.7,30.03,WNW,293,0.0,0.0,73,0.00,CLR,,0.00,WeatherDisplay:10.37,2013-01-24 11:08:00,
2013-01-24 06:13:00,35.6,27.8,30.03,NW,316,2.3,2.3,73,0.00,CLR,,0.00,WeatherDisplay:10.37,2013-01-24 11:13:00,
2013-01-24 06:18:00,35.9,27.7,30.02,WNW,293,0.0,0.0,72,0.00,CLR,,0.00,WeatherDisplay:10.37,2013-01-24 11:18:00,
2013-01-24 06:23:00,34.9,26.8,30.04,NNW,327,0.0,0.0,72,0.00,CLR,,0.00,WeatherDisplay:10.37,2013-01-24 11:23:00,
2013-01-24 06:28:00,35.9,27.7,30.02,WNW,293,0.0,0.0,72,0.00,CLR,,0.00,WeatherDisplay:10.37,2013-01-24 11:28:00,
2013-01-24 06:33:00,34.4,27.0,30.04,WNW,288,0.0,0.0,74,0.00,CLR,,0.00,WeatherDisplay:10.37,2013-01-24 11:33:00,
2013-01-24 06:38:00,34.4,27.0,30.05,WNW,300,0.0,0.0,74,0.00,CLR,,0.00,WeatherDisplay:10.37,2013-01-24 11:38:00,
2013-01-24 06:43:00,34.4,27.3,30.05,WNW,284,3.5,3.5,75,0.00,CLR,,0.00,WeatherDisplay:10.37,2013-01-24 11:43:00,
2013-01-24 06:48:00,34.4,27.3,30.05,WNW,284,3.5,3.5,75,0.00,CLR,,0.00,WeatherDisplay:10.37,2013-01-24 11:48:00,
2013-01-24 06:53:00,34.4,27.3,30.05,WNW,284,3.5,3.5,75,0.00,CLR,,0.00,WeatherDisplay:10.37,2013-01-24 11:53:00,
2013-01-24 06:58:00,34.4,27.3,30.05,WNW,284,3.5,3.5,75,0.00,CLR,,0.00,WeatherDisplay:10.37,2013-01-24 11:58:00,
2013-01-24 07:03:00,36.1,27.9,30.07,SW,236,2.3,2.3,72,0.00,CLR,,0.00,WeatherDisplay:10.37,2013-01-24 12:03:00,
2013-01-24 07:08:00,35.6,27.8,30.07,ESE,117,3.5,3.5,73,0.00,CLR,,0.00,WeatherDisplay:10.37,2013-01-24 12:08:00,
2013-01-24 07:13:00,35.6,27.8,30.07,ESE,117,3.5,3.5,73,0.00,CLR,,0.00,WeatherDisplay:10.37,2013-01-24 12:13:00,
2013-01-24 07:18:00,35.6,27.8,30.07,ESE,117,3.5,3.5,73,0.00,CLR,,0.00,WeatherDisplay:10.37,2013-01-24 12:18:00,
2013-01-24 07:23:00,35.5,28.0,30.08,ESE,113,0.0,0.0,74,0.00,CLR,,0.00,WeatherDisplay:10.37,2013-01-24 12:23:00,
2013-01-24 07:28:00,35.6,27.8,30.07,ESE,117,3.5,3.5,73,0.00,CLR,,0.00,WeatherDisplay:10.37,2013-01-24 12:28:00,
2013-01-24 07:33:00,35.6,27.8,30.07,ESE,117,3.5,3.5,73,0.00,CLR,,0.00,WeatherDisplay:10.37,2013-01-24 12:33:00,
2013-01-24 07:38:00,35.7,27.9,30.09,ENE,69,17.3,17.3,73,0.00,CLR,,0.00,WeatherDisplay:10.37,2013-01-24 12:38:00,
2013-01-24 07:43:00,37.3,28.1,30.09,NNW,343,2.3,0.0,69,0.00,CLR,,0.00,WeatherDisplay:10.37,2013-01-24 12:43:00,
2013-01-24 07:48:00,36.5,27.3,30.09,NNW,328,4.6,4.6,69,0.00,CLR,,0.00,WeatherDisplay:10.37,2013-01-24 12:48:00,
2013-01-24 07:53:00,36.5,27.3,30.09,NNW,328,4.6,4.6,69,0.00,CLR,,0.00,WeatherDisplay:10.37,2013-01-24 12:53:00,
2013-01-24 07:58:00,36.5,27.3,30.09,NNW,328,4.6,4.6,69,0.00,CLR,,0.00,WeatherDisplay:10.37,2013-01-24 12:58:00,
2013-01-24 08:03:00,38.4,26.1,30.11,NE,49,3.5,4.1,61,0.00,CLR,,0.00,WeatherDisplay:10.37,2013-01-24 13:03:00,
2013-01-24 08:08:00,38.4,26.1,30.11,NE,49,3.5,4.1,61,0.00,CLR,,0.00,WeatherDisplay:10.37,2013-01-24 13:08:00,
2013-01-24 08:13:00,38.4,26.1,30.11,NE,49,3.5,4.1,61,0.00,CLR,,0.00,WeatherDisplay:10.37,2013-01-24 13:13:00,
2013-01-24 08:18:00,38.4,26.1,30.11,NE,49,3.5,4.1,61,0.00,CLR,,0.00,WeatherDisplay:10.37,2013-01-24 13:18:00,
2013-01-24 08:23:00,42.2,23.9,30.13,WNW,302,11.5,11.5,48,0.00,CLR,,0.00,WeatherDisplay:10.37,2013-01-24 13:23:00,
2013-01-24 08:28:00,42.5,24.2,30.13,WNW,302,5.8,5.8,48,0.00,CLR,,0.00,WeatherDisplay:10.37,2013-01-24 13:28:00,
2013-01-24 08:33:00,42.5,23.2,30.13,WNW,302,12.7,12.7,46,0.00,CLR,,0.00,WeatherDisplay:10.37,2013-01-24 13:33:00,
2013-01-24 08:38:00,38.4,26.1,30.11,NE,49,3.5,4.1,61,0.00,CLR,,0.00,WeatherDisplay:10.37,2013-01-24 13:38:00,
2013-01-24 08:43:00,42.8,21.3,30.13,NW,322,15.0,15.0,42,0.00,CLR,,0.00,WeatherDisplay:10.37,2013-01-24 13:43:00,
2013-01-24 08:48:00,42.9,21.4,30.13,NW,312,10.4,10.4,42,0.00,CLR,,0.00,WeatherDisplay:10.37,2013-01-24 13:48:00,
2013-01-24 08:53:00,43.1,18.6,30.14,North,351,16.1,16.1,37,0.00,CLR,,0.00,WeatherDisplay:10.37,2013-01-24 13:53:00,
2013-01-24 08:58:00,42.9,21.4,30.13,NW,312,10.4,10.4,42,0.00,CLR,,0.00,WeatherDisplay:10.37,2013-01-24 13:58:00,
2013-01-24 09:03:00,43.4,16.2,30.15,NNW,336,16.1,16.1,33,0.00,CLR,,0.00,WeatherDisplay:10.37,2013-01-24 14:03:00,
2013-01-24 09:08:00,43.5,16.3,30.15,NW,325,16.1,16.1,33,0.00,CLR,,0.00,WeatherDisplay:10.37,2013-01-24 14:08:00,
2013-01-24 09:13:00,43.6,16.3,30.16,WNW,294,17.3,17.3,33,0.00,CLR,,0.00,WeatherDisplay:10.37,2013-01-24 14:13:00,
2013-01-24 09:18:00,43.7,16.4,30.16,NW,325,18.4,18.4,33,0.00,CLR,,0.00,WeatherDisplay:10.37,2013-01-24 14:18:00,
2013-01-24 09:23:00,42.9,21.4,30.13,NW,312,10.4,10.4,42,0.00,CLR,,0.00,WeatherDisplay:10.37,2013-01-24 14:23:00,
2013-01-24 09:28:00,42.9,21.4,30.13,NW,312,10.4,10.4,42,0.00,CLR,,0.00,WeatherDisplay:10.37,2013-01-24 14:28:00,
2013-01-24 09:33:00,44.2,16.2,30.17,NNW,343,14.0,14.0,32,0.00,CLR,,0.00,WeatherDisplay:10.37,2013-01-24 14:33:00,
2013-01-24 09:38:00,44.5,16.4,30.18,NNW,340,11.5,11.5,32,0.00,CLR,,0.00,WeatherDisplay:10.37,2013-01-24 14:38:00,
2013-01-24 09:43:00,44.7,18.0,30.18,NNE,21,9.2,9.2,34,0.00,CLR,,0.00,WeatherDisplay:10.37,2013-01-24 14:43:00,
2013-01-24 09:48:00,45.0,18.3,30.19,NNW,336,11.0,11.0,34,0.00,CLR,,0.00,WeatherDisplay:10.37,2013-01-24 14:48:00,
2013-01-24 09:53:00,45.1,18.4,30.19,North,350,9.0,9.0,34,0.00,CLR,,0.00,WeatherDisplay:10.37,2013-01-24 14:53:00,
2013-01-24 09:58:00,45.2,17.8,30.20,NNE,30,5.8,5.8,33,0.00,CLR,,0.00,WeatherDisplay:10.37,2013-01-24 14:58:00,
2013-01-24 10:03:00,42.9,21.4,30.13,NW,312,10.4,10.4,42,0.00,CLR,,0.00,WeatherDisplay:10.37,2013-01-24 15:03:00,
2013-01-24 10:08:00,45.4,17.9,30.21,North,350,11.5,11.5,33,0.00,CLR,,0.00,WeatherDisplay:10.37,2013-01-24 15:08:00,
2013-01-24 10:13:00,42.9,21.4,30.13,NW,312,10.4,10.4,42,0.00,CLR,,0.00,WeatherDisplay:10.37,2013-01-24 15:13:00,
2013-01-24 10:18:00,42.9,21.4,30.13,NW,312,10.4,10.4,42,0.00,CLR,,0.00,WeatherDisplay:10.37,2013-01-24 15:18:00,
2013-01-24 10:23:00,45.4,17.9,30.21,North,360,6.9,6.9,33,0.00,CLR,,0.00,WeatherDisplay:10.37,2013-01-24 15:23:00,
2013-01-24 10:28:00,45.4,22.5,30.22,NE,51,15.0,15.0,40,0.00,CLR,,0.00,WeatherDisplay:10.37,2013-01-24 15:28:00,
2013-01-24 10:33:00,42.9,21.4,30.13,NW,312,10.4,10.4,42,0.00,CLR,,0.00,WeatherDisplay:10.37,2013-01-24 15:33:00,
2013-01-24 10:38:00,43.1,22.1,30.23,NE,55,13.8,13.8,43,0.00,CLR,,0.00,WeatherDisplay:10.37,2013-01-24 15:38:00,
2013-01-24 10:43:00,43.1,22.1,30.23,NE,36,4.6,6.2,43,0.00,CLR,,0.00,WeatherDisplay:10.37,2013-01-24 15:43:00,
2013-01-24 10:48:00,43.1,22.1,30.23,NE,36,4.6,6.2,43,0.00,CLR,,0.00,WeatherDisplay:10.37,2013-01-24 15:48:00,
2013-01-24 10:53:00,43.0,22.5,30.23,ENE,60,11.5,11.5,44,0.00,CLR,,0.00,WeatherDisplay:10.37,2013-01-24 15:53:00,
2013-01-24 10:58:00,43.1,22.1,30.23,NE,36,4.6,6.2,43,0.00,CLR,,0.00,WeatherDisplay:10.37,2013-01-24 15:58:00,
2013-01-24 11:03:00,43.1,21.5,30.24,North,351,13.8,13.8,42,0.00,CLR,,0.00,WeatherDisplay:10.37,2013-01-24 16:03:00,
2013-01-24 11:08:00,43.2,21.6,30.25,North,360,6.9,8.0,42,0.00,CLR,,0.00,WeatherDisplay:10.37,2013-01-24 16:08:00,
2013-01-24 11:13:00,43.2,21.6,30.25,North,360,6.9,8.0,42,0.00,CLR,,0.00,WeatherDisplay:10.37,2013-01-24 16:13:00,
2013-01-24 11:18:00,43.3,20.6,30.25,NNE,28,16.1,16.1,40,0.00,CLR,,0.00,WeatherDisplay:10.37,2013-01-24 16:18:00,
2013-01-24 11:23:00,43.3,20.0,30.26,NE,34,12.7,12.7,39,0.00,CLR,,0.00,WeatherDisplay:10.37,2013-01-24 16:23:00,
2013-01-24 11:28:00,43.1,19.8,30.26,NE,42,12.7,12.7,39,0.00,CLR,,0.00,WeatherDisplay:10.37,2013-01-24 16:28:00,
2013-01-24 11:33:00,43.3,19.4,30.26,NE,37,12.7,12.7,38,0.00,CLR,,0.00,WeatherDisplay:10.37,2013-01-24 16:33:00,
2013-01-24 11:38:00,43.3,19.4,30.26,ENE,65,10.4,10.7,38,0.00,CLR,,0.00,WeatherDisplay:10.37,2013-01-24 16:38:00,
2013-01-24 11:43:00,43.3,19.4,30.26,ENE,65,10.4,10.7,38,0.00,CLR,,0.00,WeatherDisplay:10.37,2013-01-24 16:43:00,
2013-01-24 11:48:00,43.3,19.4,30.26,ENE,65,10.4,10.7,38,0.00,CLR,,0.00,WeatherDisplay:10.37,2013-01-24 16:48:00,
2013-01-24 11:53:00,43.2,18.6,30.27,North,360,13.8,13.8,37,0.00,CLR,,0.00,WeatherDisplay:10.37,2013-01-24 16:53:00,
2013-01-24 11:58:00,43.0,18.5,30.28,NE,41,9.2,9.2,37,0.00,CLR,,0.00,WeatherDisplay:10.37,2013-01-24 16:58:00,
2013-01-24 12:03:00,42.7,18.2,30.28,North,355,11.5,11.5,37,0.00,CLR,,0.00,WeatherDisplay:10.37,2013-01-24 17:03:00,
2013-01-24 12:08:00,41.7,17.9,30.28,NE,40,16.0,16.0,38,0.00,CLR,,0.00,WeatherDisplay:10.37,2013-01-24 17:08:00,
2013-01-24 12:13:00,43.2,18.6,30.27,North,360,13.8,13.8,37,0.00,CLR,,0.00,WeatherDisplay:10.37,2013-01-24 17:13:00,
2013-01-24 12:18:00,41.1,18.0,30.28,NE,38,15.0,15.0,39,0.00,CLR,,0.00,WeatherDisplay:10.37,2013-01-24 17:18:00,
2013-01-24 12:23:00,41.1,18.0,30.28,NE,42,5.8,8.1,39,0.00,CLR,,0.00,WeatherDisplay:10.37,2013-01-24 17:23:00,
2013-01-24 12:28:00,41.1,18.0,30.28,NE,42,5.8,8.1,39,0.00,CLR,,0.00,WeatherDisplay:10.37,2013-01-24 17:28:00,
2013-01-24 12:33:00,41.1,18.0,30.28,NE,42,5.8,8.1,39,0.00,CLR,,0.00,WeatherDisplay:10.37,2013-01-24 17:33:00,
2013-01-24 12:38:00,40.9,16.6,30.29,NE,36,15.0,15.0,37,0.00,CLR,,0.00,WeatherDisplay:10.37,2013-01-24 17:38:00,
2013-01-24 12:43:00,41.2,17.5,30.29,North,5,15.0,15.0,38,0.00,CLR,,0.00,WeatherDisplay:10.37,2013-01-24 17:43:00,
2013-01-24 12:48:00,40.9,16.6,30.29,NE,45,9.2,12.4,37,0.00,CLR,,0.00,WeatherDisplay:10.37,2013-01-24 17:48:00,
2013-01-24 12:53:00,41.8,16.1,30.29,NNE,21,12.7,12.7,35,0.00,CLR,,0.00,WeatherDisplay:10.37,2013-01-24 17:53:00,
2013-01-24 12:58:00,41.8,16.8,30.29,NE,35,10.0,10.0,36,0.00,CLR,,0.00,WeatherDisplay:10.37,2013-01-24 17:58:00,
2013-01-24 13:03:00,42.1,16.4,30.29,ENE,76,9.2,9.2,35,0.00,CLR,,0.00,WeatherDisplay:10.37,2013-01-24 18:03:00,
2013-01-24 13:08:00,42.0,16.3,30.29,NNE,19,11.5,11.5,35,0.00,CLR,,0.00,WeatherDisplay:10.37,2013-01-24 18:08:00,
2013-01-24 13:13:00,42.0,16.3,30.29,NNE,19,11.5,11.5,35,0.00,CLR,,0.00,WeatherDisplay:10.37,2013-01-24 18:13:00,
2013-01-24 13:18:00,42.3,13.8,30.30,NE,36,15.0,15.0,31,0.00,CLR,,0.00,WeatherDisplay:10.37,2013-01-24 18:18:00,
2013-01-24 13:23:00,41.9,13.4,30.30,NE,37,13.8,13.8,31,0.00,CLR,,0.00,WeatherDisplay:10.37,2013-01-24 18:23:00,
2013-01-24 13:28:00,41.9,13.4,30.30,NE,34,11.5,11.5,31,0.00,CLR,,0.00,WeatherDisplay:10.37,2013-01-24 18:28:00,
2013-01-24 13:33:00,42.0,12.0,30.30,NE,40,15.0,15.0,29,0.00,CLR,,0.00,WeatherDisplay:10.37,2013-01-24 18:33:00,
2013-01-24 13:38:00,41.9,11.9,30.30,ENE,69,17.3,17.3,29,0.00,CLR,,0.00,WeatherDisplay:10.37,2013-01-24 18:38:00,
2013-01-24 13:43:00,41.8,12.6,30.31,NE,53,16.1,16.1,30,0.00,CLR,,0.00,WeatherDisplay:10.37,2013-01-24 18:43:00,
2013-01-24 13:48:00,42.0,12.0,30.31,ENE,61,12.7,12.7,29,0.00,CLR,,0.00,WeatherDisplay:10.37,2013-01-24 18:48:00,
2013-01-24 13:53:00,41.8,12.6,30.30,North,5,10.4,10.4,30,0.00,CLR,,0.00,WeatherDisplay:10.37,2013-01-24 18:53:00,
2013-01-24 13:58:00,41.8,12.6,30.30,North,5,10.4,10.4,30,0.00,CLR,,0.00,WeatherDisplay:10.37,2013-01-24 18:58:00,
2013-01-24 14:03:00,42.2,15.1,30.31,ENE,74,11.5,11.5,33,0.00,CLR,,0.00,WeatherDisplay:10.37,2013-01-24 19:03:00,
2013-01-24 14:08:00,41.4,14.4,30.31,ENE,60,12.7,12.7,33,0.00,CLR,,0.00,WeatherDisplay:10.37,2013-01-24 19:08:00,
2013-01-24 14:13:00,40.6,14.4,30.31,ESE,105,16.1,16.1,34,0.00,CLR,,0.00,WeatherDisplay:10.37,2013-01-24 19:13:00,
2013-01-24 14:18:00,40.6,15.0,30.31,ENE,58,13.8,13.8,35,0.00,CLR,,0.00,WeatherDisplay:10.37,2013-01-24 19:18:00,
2013-01-24 14:23:00,40.7,15.1,30.31,East,80,9.2,9.2,35,0.00,CLR,,0.00,WeatherDisplay:10.37,2013-01-24 19:23:00,
2013-01-24 14:28:00,40.6,14.4,30.32,East,82,15.0,15.0,34,0.00,CLR,,0.00,WeatherDisplay:10.37,2013-01-24 19:28:00,
2013-01-24 14:33:00,40.5,15.0,30.32,NE,53,11.5,11.5,35,0.00,CLR,,0.00,WeatherDisplay:10.37,2013-01-24 19:33:00,
2013-01-24 14:38:00,40.5,14.3,30.32,ENE,78,13.8,13.8,34,0.00,CLR,,0.00,WeatherDisplay:10.37,2013-01-24 19:38:00,
2013-01-24 14:43:00,40.6,13.7,30.33,NE,55,11.5,11.5,33,0.00,CLR,,0.00,WeatherDisplay:10.37,2013-01-24 19:43:00,
2013-01-24 14:48:00,40.5,13.6,30.33,North,9,13.8,13.8,33,0.00,CLR,,0.00,WeatherDisplay:10.37,2013-01-24 19:48:00,
2013-01-24 14:53:00,40.2,13.3,30.33,ENE,73,17.3,17.3,33,0.00,CLR,,0.00,WeatherDisplay:10.37,2013-01-24 19:53:00,
2013-01-24 14:58:00,40.1,13.3,30.33,NE,47,15.0,15.0,33,0.00,CLR,,0.00,WeatherDisplay:10.37,2013-01-24 19:58:00,
2013-01-24 15:03:00,40.5,12.9,30.33,ENE,57,6.9,10.7,32,0.00,CLR,,0.00,WeatherDisplay:10.37,2013-01-24 20:03:00,
2013-01-24 15:08:00,40.1,13.3,30.33,NE,53,9.2,9.2,33,0.00,CLR,,0.00,WeatherDisplay:10.37,2013-01-24 20:08:00,
2013-01-24 15:13:00,40.1,13.3,30.33,NE,53,9.2,9.2,33,0.00,CLR,,0.00,WeatherDisplay:10.37,2013-01-24 20:13:00,
2013-01-24 15:18:00,40.1,13.3,30.33,NE,53,9.2,9.2,33,0.00,CLR,,0.00,WeatherDisplay:10.37,2013-01-24 20:18:00,
2013-01-24 15:23:00,39.3,12.6,30.35,ENE,68,17.3,17.3,33,0.00,CLR,,0.00,WeatherDisplay:10.37,2013-01-24 20:23:00,
2013-01-24 15:28:00,38.3,12.3,30.35,ESE,118,11.5,11.5,34,0.00,CLR,,0.00,WeatherDisplay:10.37,2013-01-24 20:28:00,
2013-01-24 15:33:00,37.7,11.8,30.35,ENE,63,9.2,9.2,34,0.00,CLR,,0.00,WeatherDisplay:10.37,2013-01-24 20:33:00,
2013-01-24 15:38:00,37.9,12.0,30.35,ENE,65,10.4,10.7,34,0.00,CLR,,0.00,WeatherDisplay:10.37,2013-01-24 20:38:00,
2013-01-24 15:43:00,37.4,12.8,30.36,ENE,69,11.5,11.5,36,0.00,CLR,,0.00,WeatherDisplay:10.37,2013-01-24 20:43:00,
2013-01-24 15:48:00,37.4,12.8,30.36,ENE,69,9.2,9.2,36,0.00,CLR,,0.00,WeatherDisplay:10.37,2013-01-24 20:48:00,
2013-01-24 15:53:00,36.8,12.9,30.36,NE,45,4.6,4.6,37,0.00,CLR,,0.00,WeatherDisplay:10.37,2013-01-24 20:53:00,
2013-01-24 15:58:00,36.8,12.9,30.36,NE,45,4.6,4.6,37,0.00,CLR,,0.00,WeatherDisplay:10.37,2013-01-24 20:58:00,
2013-01-24 16:03:00,36.2,11.1,30.37,East,94,16.1,16.1,35,0.00,CLR,,0.00,WeatherDisplay:10.37,2013-01-24 21:03:00,
2013-01-24 16:08:00,36.8,12.9,30.36,NE,45,4.6,4.6,37,0.00,CLR,,0.00,WeatherDisplay:10.37,2013-01-24 21:08:00,
2013-01-24 16:13:00,35.6,11.2,30.38,NE,56,15.0,15.0,36,0.00,CLR,,0.00,WeatherDisplay:10.37,2013-01-24 21:13:00,
2013-01-24 16:18:00,35.5,11.1,30.38,NE,55,13.8,13.8,36,0.00,CLR,,0.00,WeatherDisplay:10.37,2013-01-24 21:18:00,
2013-01-24 16:23:00,35.3,11.0,30.38,ENE,76,17.3,17.3,36,0.00,CLR,,0.00,WeatherDisplay:10.37,2013-01-24 21:23:00,
2013-01-24 16:28:00,35.0,10.7,30.38,ENE,75,15.0,15.0,36,0.00,CLR,,0.00,WeatherDisplay:10.37,2013-01-24 21:28:00,
2013-01-24 16:33:00,34.7,10.4,30.39,ENE,67,16.1,16.1,36,0.00,CLR,,0.00,WeatherDisplay:10.37,2013-01-24 21:33:00,
2013-01-24 16:38:00,34.8,10.5,30.39,ENE,76,5.8,6.7,36,0.00,CLR,,0.00,WeatherDisplay:10.37,2013-01-24 21:38:00,
2013-01-24 16:43:00,34.7,10.4,30.39,ENE,72,5.8,5.8,36,0.00,CLR,,0.00,WeatherDisplay:10.37,2013-01-24 21:43:00,
2013-01-24 16:48:00,34.5,10.2,30.39,East,80,11.5,11.5,36,0.00,CLR,,0.00,WeatherDisplay:10.37,2013-01-24 21:48:00,
2013-01-24 16:53:00,34.8,10.5,30.39,ENE,76,5.8,6.7,36,0.00,CLR,,0.00,WeatherDisplay:10.37,2013-01-24 21:53:00,
2013-01-24 16:58:00,34.4,10.2,30.40,ESE,112,9.0,9.0,36,0.00,CLR,,0.00,WeatherDisplay:10.37,2013-01-24 21:58:00,
2013-01-24 17:03:00,34.3,10.1,30.39,ENE,77,10.4,10.4,36,0.00,CLR,,0.00,WeatherDisplay:10.37,2013-01-24 22:03:00,
2013-01-24 17:08:00,34.0,9.8,30.40,NE,41,10.4,10.4,36,0.00,CLR,,0.00,WeatherDisplay:10.37,2013-01-24 22:08:00,
2013-01-24 17:13:00,33.7,10.1,30.40,ENE,78,9.2,9.2,37,0.00,CLR,,0.00,WeatherDisplay:10.37,2013-01-24 22:13:00,
2013-01-24 17:18:00,33.4,9.3,30.41,NE,36,11.0,11.0,36,0.00,CLR,,0.00,WeatherDisplay:10.37,2013-01-24 22:18:00,
2013-01-24 17:23:00,33.0,9.5,30.41,East,80,11.5,11.5,37,0.00,CLR,,0.00,WeatherDisplay:10.37,2013-01-24 22:23:00,
2013-01-24 17:28:00,33.0,9.5,30.41,East,80,5.8,11.0,37,0.00,CLR,,0.00,WeatherDisplay:10.37,2013-01-24 22:28:00,
2013-01-24 17:33:00,32.4,8.4,30.41,ENE,62,12.7,12.7,36,0.00,CLR,,0.00,WeatherDisplay:10.37,2013-01-24 22:33:00,
2013-01-24 17:38:00,33.0,9.5,30.41,East,80,5.8,11.0,37,0.00,CLR,,0.00,WeatherDisplay:10.37,2013-01-24 22:38:00,
2013-01-24 17:43:00,32.1,8.7,30.42,ENE,57,5.8,5.8,37,0.00,CLR,,0.00,WeatherDisplay:10.37,2013-01-24 22:43:00,
2013-01-24 17:48:00,31.9,8.5,30.43,ESE,105,9.2,9.2,37,0.00,CLR,,0.00,WeatherDisplay:10.37,2013-01-24 22:48:00,
2013-01-24 17:53:00,31.7,8.4,30.43,ENE,62,11.5,11.5,37,0.00,CLR,,0.00,WeatherDisplay:10.37,2013-01-24 22:53:00,
2013-01-24 17:58:00,33.0,9.5,30.41,East,80,5.8,11.0,37,0.00,CLR,,0.00,WeatherDisplay:10.37,2013-01-24 22:58:00,
2013-01-24 18:03:00,31.4,8.1,30.43,ENE,59,13.8,13.8,37,0.00,CLR,,0.00,WeatherDisplay:10.37,2013-01-24 23:03:00,
2013-01-24 18:08:00,31.3,8.0,30.43,NE,56,2.3,5.5,37,0.00,CLR,,0.00,WeatherDisplay:10.37,2013-01-24 23:08:00,
2013-01-24 18:13:00,31.0,7.7,30.43,ENE,58,4.6,4.6,37,0.00,CLR,,0.00,WeatherDisplay:10.37,2013-01-24 23:13:00,
2013-01-24 18:18:00,31.3,8.0,30.43,NE,56,2.3,5.5,37,0.00,CLR,,0.00,WeatherDisplay:10.37,2013-01-24 23:18:00,
2013-01-24 18:23:00,30.8,8.1,30.42,NE,34,11.5,11.5,38,0.00,CLR,,0.00,WeatherDisplay:10.37,2013-01-24 23:23:00,
2013-01-24 18:28:00,31.3,8.0,30.43,NE,56,2.3,5.5,37,0.00,CLR,,0.00,WeatherDisplay:10.37,2013-01-24 23:28:00,
2013-01-24 18:33:00,30.6,7.4,30.43,East,84,5.8,7.7,37,0.00,CLR,,0.00,WeatherDisplay:10.37,2013-01-24 23:33:00,
2013-01-24 18:38:00,30.6,7.4,30.43,East,84,5.8,7.7,37,0.00,CLR,,0.00,WeatherDisplay:10.37,2013-01-24 23:38:00,
2013-01-24 18:43:00,30.6,7.4,30.43,East,84,5.8,7.7,37,0.00,CLR,,0.00,WeatherDisplay:10.37,2013-01-24 23:43:00,
2013-01-24 18:48:00,30.6,7.4,30.43,East,84,5.8,7.7,37,0.00,CLR,,0.00,WeatherDisplay:10.37,2013-01-24 23:48:00,
2013-01-24 18:53:00,30.6,7.4,30.43,East,84,5.8,7.7,37,0.00,CLR,,0.00,WeatherDisplay:10.37,2013-01-24 23:53:00,
2013-01-24 18:58:00,30.0,7.4,30.45,ENE,63,6.9,6.9,38,0.00,CLR,,0.00,WeatherDisplay:10.37,2013-01-24 23:58:00,
2013-01-24 19:03:00,29.8,7.8,30.45,ENE,69,4.6,4.6,39,0.00,CLR,,0.00,WeatherDisplay:10.37,2013-01-25 00:03:00,
2013-01-24 19:08:00,30.1,7.5,30.45,ENE,63,4.6,4.6,38,0.00,CLR,,0.00,WeatherDisplay:10.37,2013-01-25 00:08:00,
2013-01-24 19:13:00,29.6,7.6,30.46,East,91,3.5,3.5,39,0.00,CLR,,0.00,WeatherDisplay:10.37,2013-01-25 00:13:00,
2013-01-24 19:18:00,29.5,7.5,30.47,ENE,65,0.0,0.0,39,0.00,CLR,,0.00,WeatherDisplay:10.37,2013-01-25 00:18:00,
2013-01-24 19:23:00,29.4,7.5,30.47,East,83,4.6,4.6,39,0.00,CLR,,0.00,WeatherDisplay:10.37,2013-01-25 00:23:00,
2013-01-24 19:28:00,29.6,7.6,30.46,East,91,2.3,2.5,39,0.00,CLR,,0.00,WeatherDisplay:10.37,2013-01-25 00:28:00,
2013-01-24 19:33:00,29.2,7.3,30.47,East,80,5.8,5.8,39,0.00,CLR,,0.00,WeatherDisplay:10.37,2013-01-25 00:33:00,
2013-01-24 19:38:00,29.2,7.3,30.47,East,94,4.6,4.6,39,0.00,CLR,,0.00,WeatherDisplay:10.37,2013-01-25 00:38:00,
2013-01-24 19:43:00,29.0,7.7,30.47,East,81,3.5,3.5,40,0.00,CLR,,0.00,WeatherDisplay:10.37,2013-01-25 00:43:00,
2013-01-24 19:48:00,29.6,7.6,30.46,East,91,2.3,2.5,39,0.00,CLR,,0.00,WeatherDisplay:10.37,2013-01-25 00:48:00,
2013-01-24 19:53:00,28.8,7.5,30.46,NE,56,11.5,11.5,40,0.00,CLR,,0.00,WeatherDisplay:10.37,2013-01-25 00:53:00,
2013-01-24 19:58:00,28.7,7.4,30.47,East,79,11.5,11.5,40,0.00,CLR,,0.00,WeatherDisplay:10.37,2013-01-25 00:58:00,
2013-01-24 20:03:00,28.8,8.0,30.47,NE,46,4.6,4.6,41,0.00,CLR,,0.00,WeatherDisplay:10.37,2013-01-25 01:03:00,
2013-01-24 20:08:00,28.6,7.3,30.48,ENE,76,6.9,6.9,40,0.00,CLR,,0.00,WeatherDisplay:10.37,2013-01-25 01:08:00,
2013-01-24 20:13:00,28.7,7.4,30.47,NE,48,3.5,4.7,40,0.00,CLR,,0.00,WeatherDisplay:10.37,2013-01-25 01:13:00,
2013-01-24 20:18:00,28.5,7.8,30.48,ENE,69,5.8,5.8,41,0.00,CLR,,0.00,WeatherDisplay:10.37,2013-01-25 01:18:00,
2013-01-24 20:23:00,28.4,7.7,30.48,ENE,78,9.2,9.2,41,0.00,CLR,,0.00,WeatherDisplay:10.37,2013-01-25 01:23:00,
2013-01-24 20:28:00,28.3,7.6,30.48,NE,49,4.0,4.0,41,0.00,CLR,,0.00,WeatherDisplay:10.37,2013-01-25 01:28:00,
2013-01-24 20:33:00,28.2,7.5,30.47,NE,42,5.8,5.8,41,0.00,CLR,,0.00,WeatherDisplay:10.37,2013-01-25 01:33:00,
2013-01-24 20:38:00,28.2,7.5,30.47,ENE,62,5.8,6.4,41,0.00,CLR,,0.00,WeatherDisplay:10.37,2013-01-25 01:38:00,
2013-01-24 20:43:00,28.2,7.5,30.47,ENE,62,5.8,6.4,41,0.00,CLR,,0.00,WeatherDisplay:10.37,2013-01-25 01:43:00,
2013-01-24 20:48:00,28.1,7.9,30.48,NE,45,0.0,0.0,42,0.00,CLR,,0.00,WeatherDisplay:10.37,2013-01-25 01:48:00,
2013-01-24 20:53:00,28.0,7.8,30.47,NE,48,11.5,11.5,42,0.00,CLR,,0.00,WeatherDisplay:10.37,2013-01-25 01:53:00,
2013-01-24 20:58:00,27.9,7.7,30.48,ENE,61,11.5,11.5,42,0.00,CLR,,0.00,WeatherDisplay:10.37,2013-01-25 01:58:00,
2013-01-24 21:03:00,27.9,7.7,30.48,ENE,78,9.2,9.2,42,0.00,CLR,,0.00,WeatherDisplay:10.37,2013-01-25 02:03:00,
2013-01-24 21:08:00,27.8,7.6,30.48,NNE,19,11.5,11.5,42,0.00,CLR,,0.00,WeatherDisplay:10.37,2013-01-25 02:08:00,
2013-01-24 21:13:00,27.6,7.5,30.48,NE,44,6.9,6.9,42,0.00,CLR,,0.00,WeatherDisplay:10.37,2013-01-25 02:13:00,
2013-01-24 21:18:00,28.0,7.8,30.48,NE,42,6.9,6.9,42,0.00,CLR,,0.00,WeatherDisplay:10.37,2013-01-25 02:18:00,
2013-01-24 21:23:00,27.5,7.9,30.48,NE,40,6.9,6.9,43,0.00,CLR,,0.00,WeatherDisplay:10.37,2013-01-25 02:23:00,
2013-01-24 21:28:00,27.5,7.9,30.49,East,84,0.0,0.2,43,0.00,CLR,,0.00,WeatherDisplay:10.37,2013-01-25 02:28:00,
2013-01-24 21:33:00,27.5,7.9,30.49,East,84,0.0,0.2,43,0.00,CLR,,0.00,WeatherDisplay:10.37,2013-01-25 02:33:00,
2013-01-24 21:38:00,27.5,7.9,30.49,East,84,0.0,0.2,43,0.00,CLR,,0.00,WeatherDisplay:10.37,2013-01-25 02:38:00,
2013-01-24 21:43:00,27.5,7.9,30.49,East,84,0.0,0.2,43,0.00,CLR,,0.00,WeatherDisplay:10.37,2013-01-25 02:43:00,
2013-01-24 21:48:00,27.5,7.9,30.49,East,84,0.0,0.2,43,0.00,CLR,,0.00,WeatherDisplay:10.37,2013-01-25 02:48:00,
2013-01-24 21:53:00,26.9,7.9,30.49,NNE,19,2.0,2.0,44,0.00,CLR,,0.00,WeatherDisplay:10.37,2013-01-25 02:53:00,
2013-01-24 21:58:00,26.7,7.7,30.49,East,84,0.0,0.0,44,0.00,CLR,,0.00,WeatherDisplay:10.37,2013-01-25 02:58:00,
2013-01-24 22:03:00,26.6,8.6,30.49,East,85,0.0,0.0,46,0.00,CLR,,0.00,WeatherDisplay:10.37,2013-01-25 03:03:00,
2013-01-24 22:08:00,27.5,7.9,30.49,East,84,0.0,0.2,43,0.00,CLR,,0.00,WeatherDisplay:10.37,2013-01-25 03:08:00,
2013-01-24 22:13:00,27.5,7.9,30.49,East,84,0.0,0.2,43,0.00,CLR,,0.00,WeatherDisplay:10.37,2013-01-25 03:13:00,
2013-01-24 22:18:00,26.3,7.8,30.49,NE,56,0.0,0.0,45,0.00,CLR,,0.00,WeatherDisplay:10.37,2013-01-25 03:18:00,
2013-01-24 22:23:00,27.5,7.9,30.49,East,84,0.0,0.2,43,0.00,CLR,,0.00,WeatherDisplay:10.37,2013-01-25 03:23:00,
2013-01-24 22:28:00,27.5,7.9,30.49,East,84,0.0,0.2,43,0.00,CLR,,0.00,WeatherDisplay:10.37,2013-01-25 03:28:00,
2013-01-24 22:33:00,27.5,7.9,30.49,East,84,0.0,0.2,43,0.00,CLR,,0.00,WeatherDisplay:10.37,2013-01-25 03:33:00,
2013-01-24 22:38:00,26.2,7.7,30.50,ENE,63,1.2,1.2,45,0.00,CLR,,0.00,WeatherDisplay:10.37,2013-01-25 03:38:00,
2013-01-24 22:43:00,26.2,7.7,30.50,East,86,0.0,0.0,45,0.00,CLR,,0.00,WeatherDisplay:10.37,2013-01-25 03:43:00,
2013-01-24 22:48:00,26.1,7.6,30.50,ENE,78,3.5,3.5,45,0.00,CLR,,0.00,WeatherDisplay:10.37,2013-01-25 03:48:00,
2013-01-24 22:53:00,26.1,7.1,30.50,ENE,69,0.0,0.0,44,0.00,CLR,,0.00,WeatherDisplay:10.37,2013-01-25 03:53:00,
2013-01-24 22:58:00,27.5,7.9,30.49,East,84,0.0,0.2,43,0.00,CLR,,0.00,WeatherDisplay:10.37,2013-01-25 03:58:00,
2013-01-24 23:03:00,27.5,7.9,30.49,East,84,0.0,0.2,43,0.00,CLR,,0.00,WeatherDisplay:10.37,2013-01-25 04:03:00,
2013-01-24 23:08:00,27.5,7.9,30.49,East,84,0.0,0.2,43,0.00,CLR,,0.00,WeatherDisplay:10.37,2013-01-25 04:08:00,
2013-01-24 23:13:00,27.5,7.9,30.49,East,84,0.0,0.2,43,0.00,CLR,,0.00,WeatherDisplay:10.37,2013-01-25 04:13:00,
2013-01-24 23:18:00,27.5,7.9,30.49,East,84,0.0,0.2,43,0.00,CLR,,0.00,WeatherDisplay:10.37,2013-01-25 04:18:00,
2013-01-24 23:23:00,27.5,7.9,30.49,East,84,0.0,0.2,43,0.00,CLR,,0.00,WeatherDisplay:10.37,2013-01-25 04:23:00,
2013-01-24 23:28:00,27.5,7.9,30.49,East,84,0.0,0.2,43,0.00,CLR,,0.00,WeatherDisplay:10.37,2013-01-25 04:28:00,
2013-01-24 23:33:00,25.1,8.1,30.52,ENE,69,0.0,0.0,48,0.00,CLR,,0.00,WeatherDisplay:10.37,2013-01-25 04:33:00,
2013-01-24 23:38:00,27.5,7.9,30.49,East,84,0.0,0.2,43,0.00,CLR,,0.00,WeatherDisplay:10.37,2013-01-25 04:38:00,
2013-01-24 23:43:00,24.8,7.9,30.51,ENE,69,0.0,0.0,48,0.00,CLR,,0.00,WeatherDisplay:10.37,2013-01-25 04:43:00,
2013-01-24 23:48:00,24.8,7.9,30.52,ENE,68,0.0,0.0,48,0.00,CLR,,0.00,WeatherDisplay:10.37,2013-01-25 04:48:00,
2013-01-24 23:53:00,24.5,7.6,30.52,ENE,69,0.0,0.0,48,0.00,CLR,,0.00,WeatherDisplay:10.37,2013-01-25 04:53:00,
2013-01-24 23:58:00,24.4,7.5,30.52,ENE,69,0.0,0.0,48,0.00,CLR,,0.00,WeatherDisplay:10.37,2013-01-25 04:58:00,